Time;durP1;ratioP1;P1;durP2;ratioP2;P2;SDS_P1;SDS_P2;PMS_P1;PMS_P2;Temp;Humidity;BMP_temperature;BMP_pressure;BME280_temperature;BME280_humidity;BME280_pressure;Samples;Min_cycle;Max_cycle;Signal;HPM_P1;HPM_P2
2022/03/01 00:01:33;;;;;;;;;;;;;;;5.04;48.61;102451.47;5000193;28;19925;-79
2022/03/01 00:03:58;;;;;;;;;;;;;;;5.20;48.33;102449.38;5003150;28;19925;-79
2022/03/01 00:06:23;;;;;;;;;;;;;;;5.13;48.55;102454.31;5001014;28;19928;-76
2022/03/01 00:08:49;;;;;;;;;;;;;;;5.26;48.96;102440.94;5002044;28;19918;-76
2022/03/01 00:11:14;;;;;;;;;;;;;;;5.16;48.38;102437.25;5001915;28;20033;-76
2022/03/01 00:13:39;;;;;;;;;;;;;;;5.21;48.42;102438.22;5003742;28;20019;-76
2022/03/01 00:16:05;;;;;;;;;;;;;;;5.27;48.41;102438.41;5001683;28;19972;-78
2022/03/01 00:18:30;;;;;;;;;;;;;;;4.99;48.03;102437.59;5000560;28;19931;-78
2022/03/01 00:20:56;;;;;;;;;;;;;;;4.94;48.58;102429.72;5007054;28;19921;-77
2022/03/01 00:23:21;;;;;;;;;;;;;;;4.86;48.94;102429.53;5007398;28;19975;-79
2022/03/01 00:25:46;;;;;;;;;;;;;;;4.93;48.33;102428.00;5004380;28;19921;-78
2022/03/01 00:28:12;;;;;;;;;;;;;;;5.09;48.50;102431.91;5008485;28;20209;-79
2022/03/01 00:30:37;;;;;;;;;;;;;;;5.15;49.19;102430.34;5005224;28;19924;-79
2022/03/01 00:33:02;;;;;;;;;;;;;;;5.29;49.29;102428.16;5010371;28;19925;-78
2022/03/01 00:35:28;;;;;;;;;;;;;;;5.21;49.02;102425.34;5001085;28;20365;-78
2022/03/01 00:37:53;;;;;;;;;;;;;;;5.26;48.97;102428.94;5007505;28;19957;-78
2022/03/01 00:40:18;;;;;;;;;;;;;;;5.12;48.35;102431.97;5007129;28;20289;-79
2022/03/01 00:42:43;;;;;;;;;;;;;;;5.00;48.54;102435.06;5001331;28;20429;-78
2022/03/01 00:45:09;;;;;;;;;;;;;;;5.03;49.40;102431.72;5005098;28;19979;-79
2022/03/01 00:47:34;;;;;;;;;;;;;;;5.10;49.62;102437.06;5009095;28;20377;-79
2022/03/01 00:49:59;;;;;;;;;;;;;;;5.20;49.11;102445.94;5007719;28;20433;-79
2022/03/01 00:52:25;;;;;;;;;;;;;;;5.08;47.66;102438.75;5009032;28;19921;-76
2022/03/01 00:54:50;;;;;;;;;;;;;;;5.20;47.20;102440.78;5023503;28;19920;-78
2022/03/01 00:57:15;;;;;;;;;;;;;;;4.98;48.20;102443.56;5012745;28;19999;-79
2022/03/01 00:59:41;;;;;;;;;;;;;;;5.14;48.23;102446.66;5008322;28;19917;-78
2022/03/01 01:02:06;;;;;;;;;;;;;;;5.05;49.14;102440.34;5002602;28;20383;-76
2022/03/01 01:04:31;;;;;;;;;;;;;;;5.19;47.85;102439.03;5006998;28;20020;-76
2022/03/01 01:06:57;;;;;;;;;;;;;;;5.01;48.32;102441.97;5004165;28;19913;-76
2022/03/01 01:09:22;;;;;;;;;;;;;;;4.44;49.81;102448.84;5005282;28;19921;-79
2022/03/01 01:11:47;;;;;;;;;;;;;;;4.37;50.18;102446.91;5006317;28;19917;-78
2022/03/01 01:14:13;;;;;;;;;;;;;;;4.55;49.35;102450.06;5007147;28;19917;-76
2022/03/01 01:16:38;;;;;;;;;;;;;;;4.87;48.41;102449.31;5006247;28;19925;-75
2022/03/01 01:19:03;;;;;;;;;;;;;;;4.83;49.14;102447.47;5007914;28;20392;-76
2022/03/01 01:22:39;;;;;;;;;;;;;;;4.87;49.31;102454.47;5004961;28;19927;-78
2022/03/01 01:24:14;;;;;;;;;;;;;;;4.60;49.16;102452.75;5012393;28;19924;-78
2022/03/01 01:26:39;;;;;;;;;;;;;;;4.53;49.60;102463.69;5002682;28;20286;-78
2022/03/01 01:29:04;;;;;;;;;;;;;;;4.45;50.19;102462.59;5004503;28;19913;-79
2022/03/01 01:31:30;;;;;;;;;;;;;;;4.42;50.21;102463.38;5002159;28;19917;-78
2022/03/01 01:33:55;;;;;;;;;;;;;;;4.88;49.62;102455.34;5009435;28;20538;-78
2022/03/01 01:36:23;;;;;;;;;;;;;;;5.00;49.21;102452.25;5006062;28;20004;-78
2022/03/01 01:38:48;;;;;;;;;;;;;;;4.98;48.76;102449.59;5002803;28;19966;-79
2022/03/01 01:41:13;;;;;;;;;;;;;;;4.87;48.86;102449.31;5004343;28;19968;-79
2022/03/01 01:43:39;;;;;;;;;;;;;;;4.80;48.62;102443.91;5006316;28;20423;-78
2022/03/01 01:46:04;;;;;;;;;;;;;;;4.91;49.74;102440.81;5000969;28;20436;-79
2022/03/01 01:48:29;;;;;;;;;;;;;;;4.75;48.79;102443.78;5001028;28;20382;-78
2022/03/01 01:50:55;;;;;;;;;;;;;;;4.74;48.99;102443.75;5004084;28;19925;-78
2022/03/01 01:53:20;;;;;;;;;;;;;;;4.45;49.51;102455.75;5010374;28;20421;-79
2022/03/01 01:55:45;;;;;;;;;;;;;;;4.77;49.21;102456.69;5004307;28;19925;-78
2022/03/01 01:58:11;;;;;;;;;;;;;;;4.60;50.16;102463.94;5006036;28;20016;-76
2022/03/01 02:00:36;;;;;;;;;;;;;;;4.47;50.08;102469.50;5003885;28;19921;-76
2022/03/01 02:03:03;;;;;;;;;;;;;;;4.29;50.69;102469.81;5005586;28;19917;-76
2022/03/01 02:05:29;;;;;;;;;;;;;;;4.49;50.66;102465.31;5002424;28;19964;-76
2022/03/01 02:07:55;;;;;;;;;;;;;;;4.33;51.07;102463.06;5006178;28;19996;-76
2022/03/01 02:10:21;;;;;;;;;;;;;;;4.40;50.53;102465.03;5001237;28;19913;-78
2022/03/01 02:12:47;;;;;;;;;;;;;;;4.35;50.51;102464.00;5003031;28;19925;-79
2022/03/01 02:15:12;;;;;;;;;;;;;;;4.20;50.83;102461.81;5000731;28;19925;-79
2022/03/01 02:17:39;;;;;;;;;;;;;;;4.18;51.32;102465.16;5007598;28;19996;-76
2022/03/01 02:20:18;;;;;;;;;;;;;;;4.17;51.15;102471.13;5000589;28;19964;-75
2022/03/01 02:22:44;;;;;;;;;;;;;;;4.43;50.81;102462.56;5006775;28;21233;-76
2022/03/01 02:25:10;;;;;;;;;;;;;;;4.29;50.28;102461.22;5016910;28;20007;-77
2022/03/01 02:27:36;;;;;;;;;;;;;;;4.37;50.55;102456.34;4994735;28;19983;-76
2022/03/01 02:30:01;;;;;;;;;;;;;;;4.59;50.03;102451.88;5004435;28;19960;-78
2022/03/01 02:32:27;;;;;;;;;;;;;;;4.57;50.09;102460.38;5005831;28;20437;-76
2022/03/01 02:34:52;;;;;;;;;;;;;;;4.50;49.64;102466.16;5001920;28;19925;-78
2022/03/01 02:37:17;;;;;;;;;;;;;;;4.45;50.13;102468.59;5004595;28;19925;-78
2022/03/01 02:39:43;;;;;;;;;;;;;;;4.68;49.21;102459.88;5003696;28;20386;-79
2022/03/01 02:42:08;;;;;;;;;;;;;;;4.76;49.66;102452.41;5009198;28;20003;-78
2022/03/01 02:44:34;;;;;;;;;;;;;;;4.74;48.96;102456.59;5004448;28;19917;-79
2022/03/01 02:46:59;;;;;;;;;;;;;;;4.72;48.89;102450.56;5001809;28;20386;-79
2022/03/01 02:49:24;;;;;;;;;;;;;;;4.73;48.83;102450.59;5006279;28;20362;-78
2022/03/01 02:51:50;;;;;;;;;;;;;;;4.37;49.68;102462.34;5004137;28;20298;-78
2022/03/01 02:54:15;;;;;;;;;;;;;;;4.45;48.83;102452.28;5003230;28;19925;-78
2022/03/01 02:56:40;;;;;;;;;;;;;;;4.56;49.15;102461.19;4998537;28;19932;-78
2022/03/01 02:59:06;;;;;;;;;;;;;;;4.30;49.96;102458.72;5004253;28;19917;-78
2022/03/01 03:01:32;;;;;;;;;;;;;;;4.67;49.83;102455.53;5003172;28;19928;-76
2022/03/01 03:03:58;;;;;;;;;;;;;;;4.69;49.02;102464.22;5003618;28;19917;-76
2022/03/01 03:06:24;;;;;;;;;;;;;;;4.52;48.53;102455.13;5003490;28;19936;-79
2022/03/01 03:08:49;;;;;;;;;;;;;;;4.83;49.44;102457.75;5004065;28;19921;-78
2022/03/01 03:11:15;;;;;;;;;;;;;;;4.80;48.71;102455.09;5002168;28;19925;-78
2022/03/01 03:13:40;;;;;;;;;;;;;;;4.81;48.90;102446.56;5003032;28;20302;-78
2022/03/01 03:16:07;;;;;;;;;;;;;;;4.64;48.18;102446.88;4999219;28;19929;-79
2022/03/01 03:18:33;;;;;;;;;;;;;;;4.64;50.28;102445.19;5003441;28;20005;-76
2022/03/01 03:20:58;;;;;;;;;;;;;;;4.82;49.21;102444.84;5001402;28;19917;-76
2022/03/01 03:23:24;;;;;;;;;;;;;;;4.75;48.91;102440.34;5006290;28;19917;-76
2022/03/01 03:25:49;;;;;;;;;;;;;;;4.87;48.50;102449.31;5002560;28;19917;-76
2022/03/01 03:28:15;;;;;;;;;;;;;;;4.99;47.84;102437.59;5004515;28;19918;-76
2022/03/01 03:30:40;;;;;;;;;;;;;;;4.90;47.95;102448.53;5001498;28;20292;-79
2022/03/01 03:33:05;;;;;;;;;;;;;;;4.93;48.22;102448.59;5006318;28;19924;-79
2022/03/01 03:35:31;;;;;;;;;;;;;;;5.06;48.78;102448.09;5004396;28;19922;-79
2022/03/01 03:37:56;;;;;;;;;;;;;;;4.98;48.42;102446.16;5004526;28;20019;-79
2022/03/01 03:40:21;;;;;;;;;;;;;;;5.01;47.95;102448.81;5000503;28;20361;-76
2022/03/01 03:42:47;;;;;;;;;;;;;;;5.09;47.41;102443.03;5002661;28;19925;-76
2022/03/01 03:45:12;;;;;;;;;;;;;;;4.97;48.05;102442.69;5000993;28;19932;-78
2022/03/01 03:47:38;;;;;;;;;;;;;;;5.00;47.27;102460.81;5005090;28;19922;-79
2022/03/01 03:50:04;;;;;;;;;;;;;;;4.91;47.89;102451.13;5003011;28;20549;-78
2022/03/01 03:52:29;;;;;;;;;;;;;;;4.85;47.35;102450.09;5005370;28;20426;-79
2022/03/01 03:54:55;;;;;;;;;;;;;;;5.04;47.63;102439.47;5006909;28;19925;-79
2022/03/01 03:57:20;;;;;;;;;;;;;;;5.13;47.16;102437.16;5008537;28;19983;-79
2022/03/01 03:59:45;;;;;;;;;;;;;;;5.14;46.69;102433.75;5009321;28;19952;-79
2022/03/01 04:02:11;;;;;;;;;;;;;;;5.24;46.93;102427.13;5004827;28;20714;-79
2022/03/01 04:04:36;;;;;;;;;;;;;;;5.32;46.96;102417.94;5003932;28;19940;-78
2022/03/01 04:07:02;;;;;;;;;;;;;;;5.25;46.54;102413.44;5006195;28;20012;-79
2022/03/01 04:09:27;;;;;;;;;;;;;;;5.29;46.95;102413.56;5004847;28;20161;-79
2022/03/01 04:11:53;;;;;;;;;;;;;;;5.31;46.37;102408.44;5007892;28;19949;-79
2022/03/01 04:14:19;;;;;;;;;;;;;;;5.19;46.60;102415.84;5009646;28;20102;-76
2022/03/01 04:16:45;;;;;;;;;;;;;;;5.28;46.78;102408.38;5007854;28;20009;-78
2022/03/01 04:19:10;;;;;;;;;;;;;;;5.25;47.04;102401.44;5006045;28;20457;-76
2022/03/01 04:21:36;;;;;;;;;;;;;;;5.23;46.60;102408.25;5007982;28;19918;-76
2022/03/01 04:24:02;;;;;;;;;;;;;;;5.09;46.73;102413.88;5006786;28;20394;-77
2022/03/01 04:26:27;;;;;;;;;;;;;;;4.99;47.17;102417.00;5006726;28;20330;-79
2022/03/01 04:29:07;;;;;;;;;;;;;;;4.72;47.11;102423.13;5076518;27;20032;-77
2022/03/01 04:31:33;;;;;;;;;;;;;;;5.08;46.75;102418.13;5040967;28;20074;-75
2022/03/01 04:33:58;;;;;;;;;;;;;;;5.11;47.42;102415.66;5041939;28;20208;-77
2022/03/01 04:36:23;;;;;;;;;;;;;;;5.12;47.11;102421.69;5040754;28;19995;-77
2022/03/01 04:38:48;;;;;;;;;;;;;;;4.95;46.78;102420.31;5041624;28;19929;-77
2022/03/01 04:41:14;;;;;;;;;;;;;;;5.01;47.27;102418.78;5043565;28;19928;-78
2022/03/01 04:43:39;;;;;;;;;;;;;;;5.19;46.54;102415.84;5043210;28;19932;-77
2022/03/01 04:46:05;;;;;;;;;;;;;;;5.23;46.95;102412.53;5044550;28;19979;-78
2022/03/01 04:48:30;;;;;;;;;;;;;;;5.28;46.22;102408.38;5041456;28;20010;-77
2022/03/01 04:50:55;;;;;;;;;;;;;;;5.21;46.66;102407.31;5044696;28;19958;-77
2022/03/01 04:53:21;;;;;;;;;;;;;;;5.20;46.78;102413.31;5055506;28;20594;-78
2022/03/01 04:55:46;;;;;;;;;;;;;;;5.24;46.57;102414.25;5046007;28;20019;-77
2022/03/01 04:58:11;;;;;;;;;;;;;;;5.25;46.89;102405.69;5034403;28;19941;-77
2022/03/01 05:00:37;;;;;;;;;;;;;;;5.23;46.69;102410.81;5042801;28;19932;-77
2022/03/01 05:03:03;;;;;;;;;;;;;;;5.26;46.58;102413.50;5040392;28;20003;-77
2022/03/01 05:05:28;;;;;;;;;;;;;;;5.16;47.20;102415.75;5047094;28;20351;-77
2022/03/01 05:07:54;;;;;;;;;;;;;;;5.18;46.58;102420.13;5034369;28;19990;-77
2022/03/01 05:10:20;;;;;;;;;;;;;;;5.17;46.22;102420.09;5036013;28;20439;-77
2022/03/01 05:12:48;;;;;;;;;;;;;;;5.01;46.88;102425.63;5040964;28;19994;-75
2022/03/01 05:15:13;;;;;;;;;;;;;;;4.99;46.88;102422.16;5035350;28;20321;-75
2022/03/01 05:17:39;;;;;;;;;;;;;;;5.26;46.80;102412.59;5046461;28;19924;-78
2022/03/01 05:20:05;;;;;;;;;;;;;;;5.20;46.88;102421.06;5042790;28;20063;-78
2022/03/01 05:22:31;;;;;;;;;;;;;;;5.15;46.92;102416.59;5048233;28;19959;-75
2022/03/01 05:24:57;;;;;;;;;;;;;;;5.05;47.31;102414.59;5043333;28;19929;-75
2022/03/01 05:27:22;;;;;;;;;;;;;;;4.75;47.37;102418.06;5037479;28;19925;-75
2022/03/01 05:29:47;;;;;;;;;;;;;;;4.88;47.70;102414.97;5041212;28;20394;-76
2022/03/01 05:32:12;;;;;;;;;;;;;;;5.13;47.66;102423.41;5039505;28;19931;-77
2022/03/01 05:34:38;;;;;;;;;;;;;;;4.89;47.83;102415.88;5038892;28;19975;-77
2022/03/01 05:37:03;;;;;;;;;;;;;;;5.01;47.58;102425.63;5039366;28;20034;-77
2022/03/01 05:39:28;;;;;;;;;;;;;;;5.22;47.32;102432.25;5035678;28;19937;-78
2022/03/01 05:41:54;;;;;;;;;;;;;;;5.25;47.35;102424.63;5041102;28;20393;-78
2022/03/01 05:44:20;;;;;;;;;;;;;;;5.27;47.40;102424.63;5028924;28;20340;-75
2022/03/01 05:46:45;;;;;;;;;;;;;;;5.14;47.39;102420.88;5021593;28;20154;-75
2022/03/01 05:49:11;;;;;;;;;;;;;;;5.28;46.87;102427.28;5029731;28;19961;-75
2022/03/01 05:51:36;;;;;;;;;;;;;;;5.18;47.05;102433.00;5024395;28;19924;-77
2022/03/01 05:54:01;;;;;;;;;;;;;;;5.25;47.22;102432.34;5027717;28;19921;-77
2022/03/01 05:56:27;;;;;;;;;;;;;;;5.09;46.38;102424.16;5025835;28;20059;-78
2022/03/01 05:58:52;;;;;;;;;;;;;;;5.12;47.33;102426.81;5026618;28;20019;-78
2022/03/01 06:01:17;;;;;;;;;;;;;;;5.16;47.17;102426.06;5029660;28;19924;-78
2022/03/01 06:03:43;;;;;;;;;;;;;;;5.22;46.66;102421.06;5031147;28;19931;-79
2022/03/01 06:06:08;;;;;;;;;;;;;;;5.27;46.25;102420.38;5017549;28;19929;-78
2022/03/01 06:08:33;;;;;;;;;;;;;;;5.36;46.38;102425.75;5025188;28;19929;-75
2022/03/01 06:10:59;;;;;;;;;;;;;;;5.27;46.27;102427.22;5024903;28;19936;-75
2022/03/01 06:13:24;;;;;;;;;;;;;;;5.25;46.23;102426.31;5030605;28;19917;-78
2022/03/01 06:15:49;;;;;;;;;;;;;;;5.38;47.05;102424.13;5025514;28;19930;-78
2022/03/01 06:18:15;;;;;;;;;;;;;;;5.25;47.09;102434.91;5022166;28;20632;-78
2022/03/01 06:20:40;;;;;;;;;;;;;;;5.21;46.86;102427.03;5026610;28;20028;-78
2022/03/01 06:23:05;;;;;;;;;;;;;;;5.05;47.09;102430.94;5027851;28;19925;-78
2022/03/01 06:25:31;;;;;;;;;;;;;;;5.09;47.20;102435.31;5033011;28;19917;-77
2022/03/01 06:27:56;;;;;;;;;;;;;;;5.37;46.75;102429.22;5026976;28;20022;-78
2022/03/01 06:30:22;;;;;;;;;;;;;;;5.13;47.41;102429.44;5021584;28;19952;-78
2022/03/01 06:32:47;;;;;;;;;;;;;;;5.06;47.39;102442.09;5026977;28;19979;-78
2022/03/01 06:35:13;;;;;;;;;;;;;;;5.36;47.56;102435.19;5035447;28;19937;-78
2022/03/01 06:37:38;;;;;;;;;;;;;;;5.45;47.53;102445.75;5023534;28;19956;-78
2022/03/01 06:40:06;;;;;;;;;;;;;;;5.26;47.32;102446.97;5030506;28;20024;-78
2022/03/01 06:42:32;;;;;;;;;;;;;;;5.21;47.78;102448.53;5024883;28;19970;-78
2022/03/01 06:44:57;;;;;;;;;;;;;;;5.15;47.30;102444.94;5027175;28;20446;-78
2022/03/01 06:47:22;;;;;;;;;;;;;;;4.94;47.30;102434.03;5024325;28;19929;-78
2022/03/01 06:49:48;;;;;;;;;;;;;;;5.25;47.60;102445.22;5020952;28;19917;-77
2022/03/01 06:52:13;;;;;;;;;;;;;;;4.78;47.99;102453.31;5024234;28;19921;-78
2022/03/01 06:54:38;;;;;;;;;;;;;;;4.93;47.86;102435.72;5041969;28;20382;-78
2022/03/01 06:57:04;;;;;;;;;;;;;;;5.11;47.50;102441.41;5038959;28;20306;-78
2022/03/01 06:59:29;;;;;;;;;;;;;;;4.96;48.23;102432.38;5027230;28;19948;-75
2022/03/01 07:01:55;;;;;;;;;;;;;;;5.17;47.16;102436.44;5038283;28;19929;-78
2022/03/01 07:04:20;;;;;;;;;;;;;;;5.37;47.04;102426.66;5025423;28;19928;-77
2022/03/01 07:06:45;;;;;;;;;;;;;;;5.18;46.98;102430.41;5029019;28;19925;-78
2022/03/01 07:09:11;;;;;;;;;;;;;;;5.10;47.36;102421.63;5026344;28;19943;-78
2022/03/01 07:11:36;;;;;;;;;;;;;;;5.37;46.87;102426.66;5023424;28;19921;-77
2022/03/01 07:14:02;;;;;;;;;;;;;;;5.56;47.67;102421.16;5021807;28;20331;-78
2022/03/01 07:16:27;;;;;;;;;;;;;;;5.44;46.99;102433.72;5023212;28;19956;-78
2022/03/01 07:18:54;;;;;;;;;;;;;;;5.56;47.27;102428.88;5017808;28;20280;-77
2022/03/01 07:21:20;;;;;;;;;;;;;;;5.51;47.71;102438.19;5025560;28;20027;-78
2022/03/01 07:23:45;;;;;;;;;;;;;;;5.41;47.04;102431.06;5031630;28;20071;-77
2022/03/01 07:26:10;;;;;;;;;;;;;;;5.46;46.93;102437.19;5028780;28;19928;-77
2022/03/01 07:28:36;;;;;;;;;;;;;;;5.65;46.46;102435.97;5027919;28;20431;-77
2022/03/01 07:31:02;;;;;;;;;;;;;;;5.17;47.99;102433.84;5025847;28;19921;-77
2022/03/01 07:33:27;;;;;;;;;;;;;;;5.31;47.93;102432.50;5016868;28;19948;-77
2022/03/01 07:35:52;;;;;;;;;;;;;;;5.45;46.05;102430.28;5026387;28;20024;-76
2022/03/01 07:38:18;;;;;;;;;;;;;;;5.39;47.10;102436.16;5021394;28;19933;-77
2022/03/01 07:40:43;;;;;;;;;;;;;;;5.57;45.72;102427.16;5026136;28;20641;-78
2022/03/01 07:43:09;;;;;;;;;;;;;;;5.56;47.38;102430.59;5022099;28;19941;-78
2022/03/01 07:45:34;;;;;;;;;;;;;;;5.67;46.14;102434.31;5028143;28;19925;-78
2022/03/01 07:48:01;;;;;;;;;;;;;;;5.71;45.42;102429.25;5014818;28;19922;-78
2022/03/01 07:50:27;;;;;;;;;;;;;;;5.78;45.13;102430.28;5007600;28;20007;-78
2022/03/01 07:52:52;;;;;;;;;;;;;;;5.58;45.90;102434.94;5013118;28;19956;-78
2022/03/01 07:55:17;;;;;;;;;;;;;;;5.47;45.57;102429.50;5009082;28;19921;-78
2022/03/01 07:57:43;;;;;;;;;;;;;;;5.70;45.15;102427.53;5010966;28;19937;-75
2022/03/01 08:00:10;;;;;;;;;;;;;;;5.80;45.73;102433.78;5008826;28;20092;-79
2022/03/01 08:02:36;;;;;;;;;;;;;;;5.91;44.66;102437.50;5010740;28;20662;-78
2022/03/01 08:05:03;;;;;;;;;;;;;;;5.81;44.52;102428.66;5009969;28;19928;-75
2022/03/01 08:07:29;;;;;;;;;;;;;;;5.59;45.15;102435.81;5007049;28;19929;-78
2022/03/01 08:09:54;;;;;;;;;;;;;;;5.82;45.05;102430.41;5004700;28;19925;-78
2022/03/01 08:12:19;;;;;;;;;;;;;;;5.82;45.06;102427.84;5008854;28;19929;-78
2022/03/01 08:14:44;;;;;;;;;;;;;;;5.74;46.38;102424.16;5007238;28;20658;-76
2022/03/01 08:17:10;;;;;;;;;;;;;;;5.69;45.16;102433.50;5006898;28;20301;-75
2022/03/01 08:19:35;;;;;;;;;;;;;;;5.95;43.20;102432.44;5008476;28;20298;-76
2022/03/01 08:22:02;;;;;;;;;;;;;;;5.94;44.37;102443.63;5044053;28;19929;-78
2022/03/01 08:24:28;;;;;;;;;;;;;;;5.95;45.79;102449.66;5021603;28;19928;-78
2022/03/01 08:26:54;;;;;;;;;;;;;;;6.06;45.26;102450.78;5007292;28;20012;-78
2022/03/01 08:29:19;;;;;;;;;;;;;;;6.11;44.16;102453.44;5004432;28;20033;-79
2022/03/01 08:31:46;;;;;;;;;;;;;;;5.99;44.16;102457.47;5008724;28;19968;-76
2022/03/01 08:34:12;;;;;;;;;;;;;;;5.97;42.27;102445.38;5007787;28;20008;-77
2022/03/01 08:36:37;;;;;;;;;;;;;;;6.24;44.19;102452.91;5007257;28;20008;-77
2022/03/01 08:39:03;;;;;;;;;;;;;;;6.09;43.26;102448.28;5010243;28;19921;-75
2022/03/01 08:41:28;;;;;;;;;;;;;;;5.85;43.12;102457.97;5002901;28;19955;-76
2022/03/01 08:43:54;;;;;;;;;;;;;;;5.94;43.49;102453.94;5013702;28;19945;-78
2022/03/01 08:46:20;;;;;;;;;;;;;;;6.12;43.86;102457.78;5006018;28;19941;-75
2022/03/01 08:48:45;;;;;;;;;;;;;;;6.19;42.20;102470.84;5006267;28;19930;-76
2022/03/01 08:51:11;;;;;;;;;;;;;;;6.05;42.56;102469.66;5007752;28;20428;-75
2022/03/01 08:53:37;;;;;;;;;;;;;;;6.32;41.42;102469.44;5006807;28;19996;-75
2022/03/01 08:56:02;;;;;;;;;;;;;;;6.44;42.04;102468.03;5006078;28;19984;-75
2022/03/01 08:58:27;;;;;;;;;;;;;;;6.40;40.66;102462.75;5002269;28;19917;-75
2022/03/01 09:00:52;;;;;;;;;;;;;;;6.55;40.61;102453.69;5006171;28;20309;-75
2022/03/01 09:03:18;;;;;;;;;;;;;;;6.25;40.29;102459.81;5006753;28;19934;-78
2022/03/01 09:05:43;;;;;;;;;;;;;;;6.56;40.20;102455.44;5009360;28;19928;-78
2022/03/01 09:08:13;;;;;;;;;;;;;;;6.54;40.78;102451.06;5003927;28;19936;-78
2022/03/01 09:10:39;;;;;;;;;;;;;;;6.88;40.44;102456.13;4999599;28;20709;-78
2022/03/01 09:13:05;;;;;;;;;;;;;;;6.77;39.87;102455.03;5001822;28;19968;-79
2022/03/01 09:15:32;;;;;;;;;;;;;;;6.95;39.84;102441.63;5010357;28;19944;-79
2022/03/01 09:17:58;;;;;;;;;;;;;;;6.82;40.64;102442.19;5008964;28;19928;-76
2022/03/01 09:20:24;;;;;;;;;;;;;;;6.94;39.03;102440.75;5008922;28;19928;-75
2022/03/01 09:22:50;;;;;;;;;;;;;;;6.91;39.67;102432.94;5009746;28;19929;-75
2022/03/01 09:25:15;;;;;;;;;;;;;;;7.35;47.75;102428.63;5011318;28;19914;-75
2022/03/01 09:27:40;;;;;;;;;;;;;;;7.31;39.10;102434.59;5006913;28;19929;-76
2022/03/01 09:30:06;;;;;;;;;;;;;;;7.07;38.24;102444.47;5015477;28;20150;-78
2022/03/01 09:32:32;;;;;;;;;;;;;;;7.18;40.34;102445.53;5006072;28;20053;-78
2022/03/01 09:34:57;;;;;;;;;;;;;;;7.13;38.26;102435.13;5011662;28;19968;-75
2022/03/01 09:37:23;;;;;;;;;;;;;;;7.08;38.58;102433.25;5005839;28;19922;-75
2022/03/01 09:39:48;;;;;;;;;;;;;;;7.14;38.98;102431.66;5008668;28;19921;-78
2022/03/01 09:42:13;;;;;;;;;;;;;;;7.16;39.12;102426.53;5007814;28;20421;-79
2022/03/01 09:44:39;;;;;;;;;;;;;;;7.21;38.46;102427.50;5007735;28;19926;-78
2022/03/01 09:47:04;;;;;;;;;;;;;;;7.00;40.13;102440.00;5005541;28;19925;-78
2022/03/01 09:49:30;;;;;;;;;;;;;;;7.07;38.88;102437.59;5008351;28;19980;-78
2022/03/01 09:51:55;;;;;;;;;;;;;;;6.88;39.67;102442.31;5003588;28;19989;-78
2022/03/01 09:54:23;;;;;;;;;;;;;;;7.35;39.64;102440.66;5006360;28;19925;-79
2022/03/01 09:56:49;;;;;;;;;;;;;;;7.88;50.28;102447.66;5017777;28;19940;-78
2022/03/01 09:59:14;;;;;;;;;;;;;;;8.51;48.75;102447.81;5009459;28;19937;-79
2022/03/01 10:01:46;;;;;;;;;;;;;;;8.83;48.01;102450.00;5009585;28;19927;-79
2022/03/01 10:04:12;;;;;;;;;;;;;;;8.82;47.16;102440.47;5021205;28;20040;-78
2022/03/01 10:06:41;;;;;;;;;;;;;;;9.11;46.60;102424.41;5023633;28;20360;-79
2022/03/01 10:09:17;;;;;;;;;;;;;;;9.25;46.17;102409.88;5006734;28;19929;-79
2022/03/01 10:11:43;;;;;;;;;;;;;;;9.08;47.48;102414.03;5007961;28;19924;-77
2022/03/01 10:14:09;;;;;;;;;;;;;;;9.10;45.83;102414.91;5006552;28;20661;-77
2022/03/01 10:16:39;;;;;;;;;;;;;;;9.36;46.39;102422.97;5003851;28;19940;-76
2022/03/01 10:19:08;;;;;;;;;;;;;;;9.35;45.69;102429.88;5007484;28;19921;-76
2022/03/01 10:21:33;;;;;;;;;;;;;;;9.27;45.22;102430.66;5010223;28;19928;-77
2022/03/01 10:23:58;;;;;;;;;;;;;;;9.50;46.37;102433.47;5006722;28;19925;-77
2022/03/01 10:26:25;;;;;;;;;;;;;;;9.57;45.96;102432.69;4998783;28;20000;-76
2022/03/01 10:28:52;;;;;;;;;;;;;;;9.62;46.24;102431.00;5005561;28;19928;-76
2022/03/01 10:31:19;;;;;;;;;;;;;;;9.48;45.64;102417.03;5008870;28;19945;-77
2022/03/01 10:33:56;;;;;;;;;;;;;;;9.61;46.67;102417.16;5024637;28;20012;-77
2022/03/01 10:36:23;;;;;;;;;;;;;;;9.66;45.61;102412.88;5007662;28;19932;-76
2022/03/01 10:38:55;;;;;;;;;;;;;;;9.66;45.82;102420.66;5006772;28;19933;-77
2022/03/01 10:41:25;;;;;;;;;;;;;;;9.65;45.94;102431.03;5012116;28;19925;-76
2022/03/01 10:43:54;;;;;;;;;;;;;;;9.69;45.40;102432.81;5006221;28;20428;-75
2022/03/01 10:46:20;;;;;;;;;;;;;;;9.55;45.23;102424.88;5004842;28;20044;-75
2022/03/01 10:48:45;;;;;;;;;;;;;;;9.64;44.63;102437.06;5004283;28;19952;-79
2022/03/01 10:51:11;;;;;;;;;;;;;;;9.72;45.23;102440.63;5011647;28;19929;-79
2022/03/01 10:53:40;;;;;;;;;;;;;;;9.76;44.56;102435.47;5010331;28;19949;-78
2022/03/01 10:56:07;;;;;;;;;;;;;;;9.67;44.64;102440.56;5013754;28;19922;-79
2022/03/01 10:58:33;;;;;;;;;;;;;;;9.71;44.80;102439.75;5004866;28;19920;-79
2022/03/01 11:00:58;;;;;;;;;;;;;;;9.75;44.12;102438.91;5003379;28;19925;-78
2022/03/01 11:03:24;;;;;;;;;;;;;;;9.84;44.57;102427.72;5006607;28;19964;-79
2022/03/01 11:05:52;;;;;;;;;;;;;;;10.01;44.06;102439.19;5023449;28;19968;-77
2022/03/01 11:08:18;;;;;;;;;;;;;;;9.88;43.66;102432.97;5007383;28;20409;-77
2022/03/01 11:10:44;;;;;;;;;;;;;;;10.06;44.42;102421.03;5010606;28;19925;-77
2022/03/01 11:13:10;;;;;;;;;;;;;;;9.92;44.20;102420.94;5009542;28;19921;-77
2022/03/01 11:15:42;;;;;;;;;;;;;;;10.00;44.49;102426.16;5008374;28;19953;-77
2022/03/01 11:18:23;;;;;;;;;;;;;;;10.06;44.21;102416.69;5009985;28;20422;-77
2022/03/01 11:20:49;;;;;;;;;;;;;;;10.08;43.43;102417.56;5008625;28;20449;-77
2022/03/01 11:23:19;;;;;;;;;;;;;;;9.98;43.54;102428.75;5009316;28;19928;-77
2022/03/01 11:25:47;;;;;;;;;;;;;;;10.09;43.99;102416.72;5010679;28;19926;-77
2022/03/01 11:28:13;;;;;;;;;;;;;;;9.98;44.17;102417.50;5009512;28;19936;-76
2022/03/01 11:30:41;;;;;;;;;;;;;;;9.93;44.15;102424.41;5008055;28;19932;-76
2022/03/01 11:33:08;;;;;;;;;;;;;;;9.85;44.54;102422.56;5003825;28;20026;-77
2022/03/01 11:35:34;;;;;;;;;;;;;;;9.97;43.88;102426.13;5007792;28;19937;-78
2022/03/01 11:38:02;;;;;;;;;;;;;;;10.05;43.50;102412.34;5011912;28;20024;-75
2022/03/01 11:40:30;;;;;;;;;;;;;;;10.13;43.66;102417.63;5008305;28;19925;-78
2022/03/01 11:43:05;;;;;;;;;;;;;;;9.25;32.27;102417.66;5006346;28;20077;-76
2022/03/01 11:45:34;;;;;;;;;;;;;;;8.89;33.03;102411.22;5005356;28;19925;-78
2022/03/01 11:48:13;;;;;;;;;;;;;;;8.69;32.80;102408.34;5010084;28;19936;-77
2022/03/01 11:50:46;;;;;;;;;;;;;;;8.68;34.36;102412.66;5020160;28;19925;-78
2022/03/01 11:53:14;;;;;;;;;;;;;;;8.92;32.83;102400.88;5005646;28;19921;-77
2022/03/01 11:55:40;;;;;;;;;;;;;;;8.88;32.11;102401.69;5007998;28;19922;-77
2022/03/01 11:58:07;;;;;;;;;;;;;;;8.88;32.87;102397.38;5008473;28;20585;-75
2022/03/01 12:00:34;;;;;;;;;;;;;;;8.86;32.51;102393.88;5006415;28;19925;-77
2022/03/01 12:03:00;;;;;;;;;;;;;;;8.87;34.01;102389.56;5008808;28;19932;-75
2022/03/01 12:05:25;;;;;;;;;;;;;;;8.83;31.52;102388.66;5008684;28;19925;-75
2022/03/01 12:07:53;;;;;;;;;;;;;;;8.73;33.62;102381.63;5004966;28;19979;-78
2022/03/01 12:10:21;;;;;;;;;;;;;;;8.70;32.28;102382.47;5004501;28;19921;-78
2022/03/01 12:12:47;;;;;;;;;;;;;;;8.94;35.46;102388.78;5007044;28;20000;-75
2022/03/01 12:15:13;;;;;;;;;;;;;;;8.76;31.90;102381.69;5007159;28;19921;-78
2022/03/01 12:17:43;;;;;;;;;;;;;;;8.91;32.82;102365.44;5005493;28;19921;-77
2022/03/01 12:20:10;;;;;;;;;;;;;;;8.97;32.60;102361.19;5007910;28;19968;-77
2022/03/01 12:22:35;;;;;;;;;;;;;;;8.79;32.47;102355.81;5006010;28;20558;-77
2022/03/01 12:25:01;;;;;;;;;;;;;;;8.71;32.22;102360.88;5014149;28;19929;-75
2022/03/01 12:27:30;;;;;;;;;;;;;;;8.71;33.16;102373.84;5000133;28;19930;-75
2022/03/01 12:29:57;;;;;;;;;;;;;;;8.76;33.51;102372.19;5008639;28;20541;-76
2022/03/01 12:32:23;;;;;;;;;;;;;;;8.75;34.33;102375.63;5004488;28;20313;-75
2022/03/01 12:34:48;;;;;;;;;;;;;;;8.85;32.92;102371.44;5006306;28;19921;-75
2022/03/01 12:37:14;;;;;;;;;;;;;;;8.85;34.10;102357.59;5004485;28;19937;-75
2022/03/01 12:39:39;;;;;;;;;;;;;;;8.89;34.05;102369.75;5006249;28;20411;-75